Time;durP1;ratioP1;P1;durP2;ratioP2;P2;SDS_P1;SDS_P2;PMS_P1;PMS_P2;Temp;Humidity;BMP_temperature;BMP_pressure;BME280_temperature;BME280_humidity;BME280_pressure;Samples;Min_cycle;Max_cycle;Signal;HPM_P1;HPM_P2
2024/01/13 00:00:16;;;;;;;16.23;9.77;;;;;;;-12.72;100.00;101657.22;5056517;28;20480;-69
2024/01/13 00:02:41;;;;;;;20.20;10.00;;;;;;;-12.61;100.00;101667.50;5058019;28;20060;-68
2024/01/13 00:05:18;;;;;;;12.67;8.47;;;;;;;-12.47;100.00;101663.25;5067598;28;20076;-66
2024/01/13 00:07:43;;;;;;;16.75;9.05;;;;;;;-12.40;100.00;101662.44;5054246;28;20052;-69
2024/01/13 00:10:09;;;;;;;14.53;8.80;;;;;;;-12.35;100.00;101659.88;5053474;28;20029;-67
2024/01/13 00:12:34;;;;;;;19.47;11.03;;;;;;;-12.34;100.00;101664.16;5052809;28;20081;-68
2024/01/13 00:15:00;;;;;;;13.77;9.90;;;;;;;-12.36;100.00;101665.88;5052400;28;20396;-68
2024/01/13 00:17:27;;;;;;;14.80;9.13;;;;;;;-12.56;100.00;101629.88;5052235;28;20424;-66
2024/01/13 00:19:53;;;;;;;10.70;8.48;;;;;;;-12.39;100.00;101669.28;5051486;28;20579;-68
2024/01/13 00:22:19;;;;;;;18.20;8.67;;;;;;;-12.89;100.00;101587.91;5053184;28;20167;-68
2024/01/13 00:24:45;;;;;;;18.98;9.00;;;;;;;-12.69;100.00;101646.13;5052855;28;20037;-66
2024/01/13 00:27:10;;;;;;;13.07;8.93;;;;;;;-12.86;100.00;101636.63;5052475;28;20033;-67
2024/01/13 00:29:36;;;;;;;14.10;8.47;;;;;;;-12.90;100.00;101660.56;5052404;28;20120;-66
2024/01/13 00:32:01;;;;;;;19.00;9.40;;;;;;;-12.86;100.00;101669.97;5051265;28;20485;-69
2024/01/13 00:34:27;;;;;;;13.17;9.63;;;;;;;-13.09;100.00;101625.44;5052404;28;20440;-69
2024/01/13 00:36:52;;;;;;;13.83;9.83;;;;;;;-13.00;100.00;101624.63;5051780;28;20066;-68
2024/01/13 00:39:18;;;;;;;11.20;8.13;;;;;;;-12.94;100.00;101617.81;5051341;28;20175;-67
2024/01/13 00:41:43;;;;;;;14.33;9.03;;;;;;;-12.83;100.00;101634.09;5051888;28;20396;-67
2024/01/13 00:44:09;;;;;;;13.53;8.03;;;;;;;-12.80;100.00;101632.38;5052029;28;20116;-67
2024/01/13 00:46:34;;;;;;;13.10;8.77;;;;;;;-12.75;100.00;101641.78;5052121;28;20123;-66
2024/01/13 00:49:00;;;;;;;18.93;9.53;;;;;;;-12.80;100.00;101637.50;5052129;28;20025;-68
2024/01/13 00:51:25;;;;;;;9.13;7.83;;;;;;;-13.06;100.00;101588.69;5051812;28;20063;-67
2024/01/13 00:53:51;;;;;;;16.20;9.63;;;;;;;-12.99;100.00;101596.44;5052521;28;20039;-67
2024/01/13 00:56:16;;;;;;;12.93;7.87;;;;;;;-12.89;100.00;101618.69;5051821;28;20028;-69
2024/01/13 00:58:42;;;;;;;19.43;9.40;;;;;;;-12.88;100.00;101625.53;5050450;28;20036;-67
2024/01/13 01:01:07;;;;;;;12.50;7.93;;;;;;;-12.99;100.00;101624.63;5050759;28;20476;-66
2024/01/13 01:03:33;;;;;;;16.87;9.40;;;;;;;-13.28;100.00;101562.16;5051493;28;20029;-67
2024/01/13 01:05:58;;;;;;;15.87;8.97;;;;;;;-12.95;100.00;101617.81;5051825;28;20041;-67
2024/01/13 01:08:24;;;;;;;13.73;8.83;;;;;;;-12.90;100.00;101632.34;5054675;28;20041;-67
2024/01/13 01:10:50;;;;;;;21.17;9.53;;;;;;;-13.20;100.00;101598.94;5053349;28;20041;-66
2024/01/13 01:13:15;;;;;;;20.53;10.63;;;;;;;-12.94;100.00;101656.28;5051768;28;20037;-68
2024/01/13 01:15:43;;;;;;;19.73;9.87;;;;;;;-12.97;100.00;101663.09;5051421;28;20064;-69
2024/01/13 01:18:09;;;;;;;19.67;11.52;;;;;;;-13.03;100.00;101661.34;5050535;28;20040;-66
2024/01/13 01:20:35;;;;;;;18.23;10.73;;;;;;;-13.24;100.00;101635.66;5050443;28;20033;-67
2024/01/13 01:23:00;;;;;;;16.53;10.67;;;;;;;-13.04;100.00;101669.88;5050391;28;20465;-68
2024/01/13 01:25:25;;;;;;;25.00;10.43;;;;;;;-13.07;100.00;101648.50;5051858;28;20263;-66
2024/01/13 01:27:51;;;;;;;23.87;12.07;;;;;;;-12.99;100.00;101641.72;5051382;28;20068;-67
2024/01/13 01:30:16;;;;;;;38.83;13.93;;;;;;;-12.82;100.00;101655.47;5050187;28;20453;-70
2024/01/13 01:32:42;;;;;;;23.63;11.70;;;;;;;-12.90;100.00;101645.19;5051566;28;20048;-69
2024/01/13 01:35:08;;;;;;;22.83;11.07;;;;;;;-13.64;100.00;101545.75;5051263;28;20036;-66
2024/01/13 01:37:34;;;;;;;21.17;11.20;;;;;;;-12.80;100.00;101668.28;5051083;28;20115;-68
2024/01/13 01:39:59;;;;;;;19.83;11.25;;;;;;;-12.86;100.00;101641.78;5052494;28;20092;-68
2024/01/13 01:42:25;;;;;;;30.30;14.53;;;;;;;-12.75;100.00;101654.63;5051733;28;20086;-66
2024/01/13 01:44:50;;;;;;;19.07;11.80;;;;;;;-12.87;100.00;101650.31;5050955;28;20041;-67
2024/01/13 01:47:21;;;;;;;20.90;11.07;;;;;;;-12.89;100.00;101644.31;5033211;28;20037;-69
2024/01/13 01:49:47;;;;;;;19.58;10.98;;;;;;;-12.97;100.00;101630.63;5052963;28;20048;-67
2024/01/13 01:52:15;;;;;;;18.65;11.50;;;;;;;-12.87;100.00;101652.88;5055049;28;20033;-67
2024/01/13 01:54:42;;;;;;;19.70;11.88;;;;;;;-12.83;100.00;101643.50;5054238;28;20508;-67
2024/01/13 01:57:11;;;;;;;20.88;12.27;;;;;;;-12.91;100.00;101629.78;5056146;28;20037;-68
2024/01/13 01:59:37;;;;;;;21.60;12.02;;;;;;;-12.90;100.00;101644.31;5055460;28;20044;-66
2024/01/13 02:02:06;;;;;;;22.47;11.60;;;;;;;-12.89;100.00;101666.56;5055444;28;20132;-67
2024/01/13 02:04:31;;;;;;;21.83;14.03;;;;;;;-13.00;100.00;101640.00;5055429;28;20468;-67
2024/01/13 02:06:57;;;;;;;20.63;12.90;;;;;;;-12.89;100.00;101654.59;5054553;28;20033;-68
2024/01/13 02:09:23;;;;;;;18.50;11.48;;;;;;;-13.07;100.00;101623.72;5054996;28;20048;-66
2024/01/13 02:11:49;;;;;;;21.35;13.18;;;;;;;-13.06;100.00;101611.75;5056670;28;20039;-67
2024/01/13 02:14:15;;;;;;;20.33;11.10;;;;;;;-12.74;100.00;101647.78;5055817;28;20121;-68
2024/01/13 02:16:41;;;;;;;24.17;12.50;;;;;;;-12.79;100.00;101624.69;5054842;28;20053;-67
2024/01/13 02:19:07;;;;;;;25.63;12.30;;;;;;;-12.62;100.00;101650.41;5055213;28;20048;-65
2024/01/13 02:21:36;;;;;;;22.83;12.17;;;;;;;-12.61;100.00;101614.50;5055001;28;20487;-64
2024/01/13 02:24:01;;;;;;;;;;;;;;;-12.15;100.00;101657.34;5055002;28;20033;-68
2024/01/13 02:26:29;;;;;;;18.50;11.57;;;;;;;-12.01;100.00;101659.06;5053404;28;19924;-66
2024/01/13 02:28:55;;;;;;;17.40;10.98;;;;;;;-11.91;100.00;101660.78;5055590;28;20524;-68
2024/01/13 02:31:20;;;;;;;18.87;11.60;;;;;;;-12.15;100.00;101603.41;5054633;28;20052;-66
2024/01/13 02:33:46;;;;;;;21.47;12.00;;;;;;;-12.00;100.00;101636.81;5054030;28;20047;-68
2024/01/13 02:36:12;;;;;;;21.33;11.03;;;;;;;-12.07;100.00;101606.88;5054913;28;20044;-67
2024/01/13 02:38:37;;;;;;;24.60;12.33;;;;;;;-11.94;100.00;101623.97;5054421;28;20045;-67
2024/01/13 02:41:03;;;;;;;26.97;13.63;;;;;;;-11.86;100.00;101636.81;5054307;28;20036;-66
2024/01/13 02:43:28;;;;;;;18.77;11.17;;;;;;;-11.89;100.00;101619.69;5055048;28;20033;-69
2024/01/13 02:45:54;;;;;;;19.27;14.10;;;;;;;-11.70;100.00;101631.63;5055402;28;20099;-68
2024/01/13 02:48:20;;;;;;;26.33;14.40;;;;;;;-11.69;100.00;101619.63;5053995;28;20036;-68
2024/01/13 02:50:59;;;;;;;22.55;11.13;;;;;;;-11.57;100.00;101627.31;5054141;28;20051;-67
2024/01/13 02:53:24;;;;;;;21.17;11.27;;;;;;;-11.52;100.00;101627.34;5054359;28;20025;-70
2024/01/13 02:55:50;;;;;;;28.57;12.23;;;;;;;-11.48;100.00;101624.75;5053234;28;20119;-68
2024/01/13 02:58:15;;;;;;;24.03;12.43;;;;;;;-11.60;100.00;101607.63;5054047;28;20044;-70
2024/01/13 03:00:41;;;;;;;18.60;11.63;;;;;;;-11.46;100.00;101599.03;5052888;28;20036;-67
2024/01/13 03:03:08;;;;;;;24.97;11.00;;;;;;;-11.47;100.00;101589.63;5052605;28;20033;-68
2024/01/13 03:05:34;;;;;;;24.20;12.25;;;;;;;-11.31;100.00;101612.69;5052665;28;20041;-68
2024/01/13 03:07:59;;;;;;;18.37;10.80;;;;;;;-11.44;100.00;101585.31;5054064;28;20186;-70
2024/01/13 03:10:25;;;;;;;21.67;12.30;;;;;;;-11.31;100.00;101597.28;5053993;28;20052;-67
2024/01/13 03:12:51;;;;;;;19.63;13.30;;;;;;;-11.60;100.00;101548.50;5053780;28;20115;-69
2024/01/13 03:15:16;;;;;;;30.47;14.13;;;;;;;-11.35;100.00;101579.28;5053124;28;20191;-64
2024/01/13 03:17:43;;;;;;;18.50;11.43;;;;;;;-11.53;100.00;101533.97;5052682;28;20477;-67
2024/01/13 03:20:09;;;;;;;19.98;11.63;;;;;;;-11.18;100.00;101589.53;5053522;28;20044;-69
2024/01/13 03:22:35;;;;;;;17.05;11.50;;;;;;;-11.22;100.00;101585.28;5053620;28;20480;-66
2024/01/13 03:25:00;;;;;;;25.50;12.37;;;;;;;-11.20;100.00;101589.53;5053495;28;20033;-68
2024/01/13 03:27:26;;;;;;;19.77;11.83;;;;;;;-11.18;100.00;101574.97;5052879;28;20086;-68
2024/01/13 03:29:51;;;;;;;18.43;12.37;;;;;;;-11.06;100.00;101580.03;5053782;28;20040;-69
2024/01/13 03:32:17;;;;;;;21.43;12.13;;;;;;;-11.02;100.00;101586.03;5052843;28;20100;-69
2024/01/13 03:34:42;;;;;;;18.67;11.83;;;;;;;-11.27;100.00;101547.56;5053044;28;20033;-67
2024/01/13 03:37:08;;;;;;;26.30;11.70;;;;;;;-11.01;100.00;101574.88;5053000;28;20126;-69
2024/01/13 03:39:33;;;;;;;22.93;13.53;;;;;;;-11.00;100.00;101563.72;5052275;28;20040;-69
2024/01/13 03:41:59;;;;;;;24.90;12.47;;;;;;;-10.81;100.00;101567.06;5052115;28;20025;-66
2024/01/13 03:44:25;;;;;;;22.37;12.57;;;;;;;-10.71;100.00;101568.72;5053039;28;20032;-67
2024/01/13 03:46:51;;;;;;;28.87;12.20;;;;;;;-10.74;100.00;101563.56;5052241;28;20045;-67
2024/01/13 03:49:16;;;;;;;22.00;13.45;;;;;;;-10.71;100.00;101564.41;5053307;28;20468;-66
2024/01/13 03:51:42;;;;;;;20.33;11.97;;;;;;;-10.90;100.00;101542.25;5052011;28;20061;-67
2024/01/13 03:54:07;;;;;;;23.00;11.93;;;;;;;-10.81;100.00;101554.19;5053386;28;20358;-66
2024/01/13 03:56:33;;;;;;;19.27;11.13;;;;;;;-10.85;100.00;101534.50;5035851;28;20620;-69
2024/01/13 03:58:58;;;;;;;27.63;13.87;;;;;;;-10.68;100.00;101554.13;5054472;28;20128;-66
2024/01/13 04:01:24;;;;;;;24.03;13.10;;;;;;;-10.89;100.00;101519.94;5054373;28;20506;-66
2024/01/13 04:03:49;;;;;;;25.67;12.37;;;;;;;-10.65;100.00;101561.81;5053496;28;20044;-69
2024/01/13 04:06:14;;;;;;;16.43;11.67;;;;;;;-10.70;100.00;101548.09;5053074;28;20039;-68
2024/01/13 04:08:40;;;;;;;29.93;13.97;;;;;;;-10.72;100.00;101525.81;5051838;28;20530;-69
2024/01/13 04:11:09;;;;;;;19.17;11.60;;;;;;;-10.63;100.00;101541.22;5052942;28;20045;-69
2024/01/13 04:13:36;;;;;;;21.45;13.48;;;;;;;-10.70;100.00;101518.94;5052636;28;20035;-69
2024/01/13 04:16:03;;;;;;;23.63;11.18;;;;;;;-10.90;100.00;101501.09;5051347;28;20548;-68
2024/01/13 04:18:29;;;;;;;22.52;13.38;;;;;;;-10.77;100.00;101513.00;5052918;28;20083;-68
2024/01/13 04:20:54;;;;;;;24.27;12.25;;;;;;;-10.83;100.00;101497.59;5052354;28;20044;-68
2024/01/13 04:23:20;;;;;;;17.70;12.33;;;;;;;-10.70;100.00;101511.22;5053625;28;20037;-67
2024/01/13 04:25:45;;;;;;;21.70;10.47;;;;;;;-10.70;100.00;101508.66;5056989;28;20075;-66
2024/01/13 04:28:11;;;;;;;22.63;10.73;;;;;;;-10.50;100.00;101535.13;5053569;28;20041;-67
2024/01/13 04:30:36;;;;;;;23.20;13.23;;;;;;;-10.50;100.00;101519.66;5053650;28;20032;-68
2024/01/13 04:33:02;;;;;;;22.03;11.57;;;;;;;-10.84;100.00;101469.31;5052663;28;20384;-69
2024/01/13 04:35:29;;;;;;;20.50;13.00;;;;;;;-10.59;100.00;101506.00;5052311;28;20056;-66
2024/01/13 04:37:55;;;;;;;24.20;13.82;;;;;;;-10.46;100.00;101512.75;5052759;28;20121;-70
2024/01/13 04:40:21;;;;;;;20.58;13.65;;;;;;;-10.61;100.00;101493.16;5052363;28;20032;-67
2024/01/13 04:42:46;;;;;;;20.20;12.23;;;;;;;-10.51;100.00;101517.97;5051075;28;20082;-67
2024/01/13 04:45:15;;;;;;;24.63;11.97;;;;;;;-10.60;100.00;101483.72;5052213;28;20052;-67
2024/01/13 04:47:41;;;;;;;20.65;12.23;;;;;;;-10.56;100.00;101475.94;5050384;28;20439;-67
2024/01/13 04:50:09;;;;;;;24.27;12.47;;;;;;;-10.52;100.00;101472.47;5051867;28;20485;-68
2024/01/13 04:52:36;;;;;;;18.88;10.77;;;;;;;-10.45;100.00;101463.84;5052524;28;20163;-67
2024/01/13 04:55:02;;;;;;;17.98;10.38;;;;;;;-10.36;100.00;101476.66;5051826;28;20070;-67
2024/01/13 04:57:29;;;;;;;14.85;11.15;;;;;;;-10.42;100.00;101460.38;5051773;28;20044;-66
2024/01/13 04:59:57;;;;;;;17.03;9.83;;;;;;;-10.33;100.00;101468.91;5051869;28;20037;-67
2024/01/13 05:02:22;;;;;;;15.18;9.65;;;;;;;-10.73;100.00;101385.16;5050665;28;20048;-69
2024/01/13 05:04:48;;;;;;;16.43;11.30;;;;;;;-10.44;100.00;101439.78;5051604;28;20037;-66
2024/01/13 05:07:16;;;;;;;18.03;12.13;;;;;;;-10.40;100.00;101445.81;5051849;28;20055;-66
2024/01/13 05:09:45;;;;;;;18.60;13.45;;;;;;;-10.79;100.00;101396.34;5052080;28;20029;-70
2024/01/13 05:12:13;;;;;;;21.58;11.80;;;;;;;-10.64;100.00;101419.41;5051709;28;20040;-67
2024/01/13 05:14:39;;;;;;;20.80;12.43;;;;;;;-10.53;100.00;101432.16;5051618;28;20033;-70
2024/01/13 05:17:05;;;;;;;22.30;14.90;;;;;;;-10.65;100.00;101420.25;5049838;28;20548;-67
2024/01/13 05:19:31;;;;;;;23.10;14.63;;;;;;;-10.65;100.00;101435.72;5051489;28;20458;-67
2024/01/13 05:21:57;;;;;;;25.90;14.07;;;;;;;-10.68;100.00;101446.03;5051505;28;20043;-66
2024/01/13 05:24:22;;;;;;;26.33;13.90;;;;;;;-10.79;100.00;101426.38;5052471;28;20029;-67
2024/01/13 05:26:48;;;;;;;23.77;13.80;;;;;;;-10.74;100.00;101440.06;5051523;28;20037;-68
2024/01/13 05:29:13;;;;;;;30.30;17.13;;;;;;;-10.74;100.00;101440.06;5051184;28;20044;-68
2024/01/13 05:31:39;;;;;;;22.77;14.17;;;;;;;-10.90;100.00;101425.63;5051078;28;20083;-68
2024/01/13 05:34:05;;;;;;;25.50;12.90;;;;;;;-10.96;100.00;101418.81;5051198;28;20033;-68
2024/01/13 05:36:33;;;;;;;27.33;13.87;;;;;;;-10.75;100.00;101446.06;5050180;28;20029;-72
2024/01/13 05:38:59;;;;;;;26.88;14.23;;;;;;;-10.74;100.00;101446.06;5052563;28;20045;-67
2024/01/13 05:41:24;;;;;;;20.10;14.53;;;;;;;-10.74;100.00;101451.19;5052203;28;20131;-67
2024/01/13 05:43:50;;;;;;;20.90;12.70;;;;;;;-10.86;100.00;101435.00;5050969;28;20045;-70
2024/01/13 05:46:15;;;;;;;23.77;13.30;;;;;;;-11.02;100.00;101429.97;5033126;28;20084;-64
2024/01/13 05:48:41;;;;;;;20.60;13.47;;;;;;;-11.07;100.00;101436.00;5049616;28;20037;-66
2024/01/13 05:51:07;;;;;;;19.93;13.17;;;;;;;-11.06;100.00;101437.72;5051286;28;20033;-66
2024/01/13 05:53:33;;;;;;;27.92;14.85;;;;;;;-11.21;100.00;101432.69;5049476;28;20425;-67
2024/01/13 05:55:58;;;;;;;14.33;11.07;;;;;;;-11.03;100.00;101463.41;5050956;28;20112;-68
2024/01/13 05:58:24;;;;;;;16.33;11.57;;;;;;;-11.20;100.00;101450.69;5051347;28;20123;-67
2024/01/13 06:00:49;;;;;;;17.57;11.17;;;;;;;-11.32;100.00;101443.00;5049282;28;20044;-69
2024/01/13 06:03:15;;;;;;;19.80;10.70;;;;;;;-11.38;100.00;101432.78;5049984;28;20028;-66
2024/01/13 06:05:40;;;;;;;15.37;10.70;;;;;;;-11.60;100.00;101408.88;5050970;28;20037;-68
2024/01/13 06:08:06;;;;;;;18.33;9.43;;;;;;;-11.53;100.00;101446.56;5049929;28;20025;-66
2024/01/13 06:10:31;;;;;;;19.60;10.53;;;;;;;-11.81;100.00;101433.03;5051474;28;20116;-70
2024/01/13 06:12:59;;;;;;;19.97;11.47;;;;;;;-12.12;100.00;101405.72;5051797;28;20128;-69
2024/01/13 06:15:27;;;;;;;20.90;11.60;;;;;;;-11.99;100.00;101433.91;5049170;28;20064;-69
2024/01/13 06:17:52;;;;;;;13.38;9.50;;;;;;;-11.95;100.00;101451.03;5050797;28;20531;-68
2024/01/13 06:20:18;;;;;;;13.53;9.13;;;;;;;-11.98;100.00;101442.47;5033200;28;20029;-69
2024/01/13 06:22:43;;;;;;;15.50;10.37;;;;;;;-12.17;100.00;101427.97;5048154;28;20128;-67
2024/01/13 06:25:09;;;;;;;17.87;12.77;;;;;;;-12.30;100.00;101445.13;5049856;28;20119;-67
2024/01/13 06:27:36;;;;;;;18.63;10.50;;;;;;;-12.56;100.00;101429.75;5034711;28;20528;-66
2024/01/13 06:30:03;;;;;;;14.63;9.98;;;;;;;-12.60;100.00;101410.09;5045182;28;20044;-67
2024/01/13 06:32:29;;;;;;;16.90;9.43;;;;;;;-12.73;100.00;101400.69;5047703;28;20447;-67
2024/01/13 06:34:54;;;;;;;20.97;10.20;;;;;;;-12.78;100.00;101387.00;5049854;28;20025;-67
2024/01/13 06:37:20;;;;;;;16.33;10.63;;;;;;;-12.61;100.00;101421.22;5047521;28;20057;-68
2024/01/13 06:39:45;;;;;;;16.70;10.77;;;;;;;-12.69;100.00;101420.38;5046759;28;20068;-69
2024/01/13 06:42:11;;;;;;;13.03;8.57;;;;;;;-12.58;100.00;101445.16;5033016;28;20037;-69
2024/01/13 06:44:36;;;;;;;14.03;9.20;;;;;;;-12.63;100.00;101457.13;5045771;28;20400;-68
2024/01/13 06:47:03;;;;;;;13.10;9.23;;;;;;;-12.72;100.00;101428.94;5039934;28;20127;-75
2024/01/13 06:49:28;;;;;;;11.32;8.90;;;;;;;-12.65;100.00;101432.34;5047509;28;20134;-69
2024/01/13 06:51:54;;;;;;;13.63;8.63;;;;;;;-12.67;100.00;101419.50;5044096;28;20560;-69
2024/01/13 06:54:19;;;;;;;21.87;9.47;;;;;;;-12.70;100.00;101403.28;5043326;28;20045;-68
2024/01/13 06:56:45;;;;;;;18.10;10.77;;;;;;;-12.55;100.00;101434.88;5046556;28;20033;-71
2024/01/13 06:59:10;;;;;;;17.70;10.30;;;;;;;-12.60;100.00;101420.34;5049978;28;20031;-68
2024/01/13 07:01:36;;;;;;;14.60;9.60;;;;;;;-12.92;100.00;101376.78;5050207;28;20481;-71
2024/01/13 07:04:02;;;;;;;13.90;9.40;;;;;;;-12.86;100.00;101385.31;5041518;28;20037;-67
2024/01/13 07:06:27;;;;;;;15.90;10.67;;;;;;;-12.86;100.00;101379.31;5044203;28;20044;-69
2024/01/13 07:08:53;;;;;;;19.30;11.30;;;;;;;-12.72;100.00;101394.69;5045826;28;20695;-67
2024/01/13 07:11:18;;;;;;;20.43;12.03;;;;;;;-13.21;100.00;101322.97;5045124;28;20041;-67
2024/01/13 07:13:44;;;;;;;24.13;13.60;;;;;;;-12.81;100.00;101387.88;5041168;28;20046;-70
2024/01/13 07:16:12;;;;;;;20.20;11.38;;;;;;;-12.73;100.00;101400.69;5045975;28;20063;-68
2024/01/13 07:18:37;;;;;;;25.95;11.70;;;;;;;-12.63;100.00;101405.81;5041103;28;20041;-66
2024/01/13 07:21:05;;;;;;;21.70;13.10;;;;;;;-12.83;100.00;101367.34;5042417;28;20044;-68
2024/01/13 07:23:32;;;;;;;19.58;11.90;;;;;;;-12.57;100.00;101404.97;5049061;28;20048;-70
2024/01/13 07:25:58;;;;;;;20.27;13.13;;;;;;;-12.65;100.00;101379.31;5034699;28;20041;-72
2024/01/13 07:28:24;;;;;;;21.27;12.13;;;;;;;-12.57;100.00;101390.41;5042240;28;20120;-69
2024/01/13 07:30:49;;;;;;;18.83;9.50;;;;;;;-12.49;100.00;101380.13;5045518;28;20136;-70
2024/01/13 07:33:15;;;;;;;18.37;11.70;;;;;;;-12.61;100.00;101367.34;5040751;28;20064;-69
2024/01/13 07:35:41;;;;;;;17.27;10.03;;;;;;;-12.78;100.00;101348.53;5041433;28;20303;-69
2024/01/13 07:38:07;;;;;;;17.87;10.20;;;;;;;-12.79;100.00;101372.47;5047885;28;20047;-68
2024/01/13 07:40:33;;;;;;;13.18;9.57;;;;;;;-12.92;100.00;101381.91;5032066;28;20037;-69
2024/01/13 07:42:58;;;;;;;17.80;10.77;;;;;;;-12.97;100.00;101381.91;5049723;28;20048;-70
2024/01/13 07:45:24;;;;;;;17.20;9.33;;;;;;;-13.01;100.00;101372.50;5050936;28;20119;-67
2024/01/13 07:47:59;;;;;;;21.03;11.23;;;;;;;-12.85;100.00;101391.28;5049981;28;20075;-74
2024/01/13 07:50:25;;;;;;;21.67;11.07;;;;;;;-12.72;100.00;101410.09;5049807;28;20036;-69
2024/01/13 07:52:51;;;;;;;20.00;9.33;;;;;;;-12.91;99.82;101357.97;5046852;28;20048;-73
2024/01/13 07:55:16;;;;;;;19.43;9.73;;;;;;;-12.83;98.76;101372.47;5027846;28;20288;-72
2024/01/13 07:57:42;;;;;;;12.63;9.33;;;;;;;-12.61;97.48;101411.81;5049043;28;20053;-70
2024/01/13 08:00:09;;;;;;;14.97;10.00;;;;;;;-12.64;97.24;101390.44;5048091;28;20044;-70
2024/01/13 08:02:37;;;;;;;21.30;11.25;;;;;;;-12.48;96.08;101404.06;5049109;28;20587;-72
2024/01/13 08:05:03;;;;;;;18.30;10.00;;;;;;;-12.71;95.04;101370.78;5052541;28;20116;-69
2024/01/13 08:07:30;;;;;;;18.05;9.30;;;;;;;-12.67;94.36;101370.78;5052725;28;20504;-68
2024/01/13 08:09:56;;;;;;;13.02;8.15;;;;;;;-12.74;93.34;101342.53;5047252;28;20049;-67
2024/01/13 08:12:21;;;;;;;14.40;9.63;;;;;;;-12.30;92.65;101392.06;5047974;28;20132;-70
2024/01/13 08:14:47;;;;;;;14.57;8.00;;;;;;;-12.31;90.40;101376.69;5048897;28;20484;-69
2024/01/13 08:17:14;;;;;;;20.57;17.87;;;;;;;-12.39;89.50;101378.41;5049736;28;20049;-67
2024/01/13 08:19:40;;;;;;;12.68;9.00;;;;;;;-12.33;90.98;101374.13;5050699;28;20037;-69
2024/01/13 08:22:06;;;;;;;12.73;8.60;;;;;;;-12.50;91.08;101324.53;5050727;28;20099;-67
2024/01/13 08:24:32;;;;;;;15.07;8.80;;;;;;;-12.24;90.03;101356.13;5049041;28;20927;-69
2024/01/13 08:26:57;;;;;;;12.03;8.90;;;;;;;-12.22;87.84;101362.09;5048430;28;20040;-68
2024/01/13 08:29:25;;;;;;;16.77;8.00;;;;;;;-12.23;87.77;101372.38;5047336;28;20124;-72
2024/01/13 08:31:51;;;;;;;13.80;8.55;;;;;;;-12.53;87.52;101319.41;5050948;28;20126;-70
2024/01/13 08:34:17;;;;;;;17.13;10.87;;;;;;;-12.62;86.99;101298.94;5050090;28;20037;-70
2024/01/13 08:36:43;;;;;;;15.50;8.63;;;;;;;-12.14;87.51;101356.06;5050329;28;20040;-71
2024/01/13 08:39:10;;;;;;;10.98;8.75;;;;;;;-12.33;85.17;101301.41;5050224;28;20075;-73
2024/01/13 08:41:36;;;;;;;13.82;9.50;;;;;;;-12.33;84.96;101322.78;5051846;28;20037;-71
2024/01/13 08:44:04;;;;;;;15.20;10.30;;;;;;;-12.46;83.75;101313.41;5046215;28;20033;-71
2024/01/13 08:46:30;;;;;;;16.20;10.25;;;;;;;-12.08;85.41;101356.06;5033237;28;20032;-74
2024/01/13 08:48:56;;;;;;;13.60;10.17;;;;;;;-12.04;84.26;101344.91;5047439;28;20390;-70
2024/01/13 08:51:21;;;;;;;19.80;9.25;;;;;;;-12.03;83.06;101331.22;5039229;28;20076;-75
2024/01/13 08:53:47;;;;;;;12.20;9.53;;;;;;;-12.25;82.47;101290.22;5044737;28;20041;-79
2024/01/13 08:56:14;;;;;;;14.40;8.87;;;;;;;-12.17;83.16;101297.03;5042019;28;20029;-71
2024/01/13 08:58:40;;;;;;;11.73;8.88;;;;;;;-12.01;83.02;101303.81;5045336;28;20041;-70
2024/01/13 09:01:12;;;;;;;11.93;9.03;;;;;;;-11.93;82.80;101307.19;5045570;28;20053;-75
2024/01/13 09:03:40;;;;;;;14.82;8.65;;;;;;;-11.80;82.10;101326.84;5046364;28;20030;-73
2024/01/13 09:06:07;;;;;;;13.48;8.30;;;;;;;-11.76;82.29;101318.22;5044649;28;20045;-70
2024/01/13 09:08:34;;;;;;;16.85;8.55;;;;;;;-11.87;80.82;101294.31;5043641;28;20498;-67
2024/01/13 09:11:01;;;;;;;14.52;10.82;;;;;;;-11.81;82.47;101312.28;5042325;28;20523;-68
2024/01/13 09:13:27;;;;;;;15.77;8.82;;;;;;;-12.16;82.93;101230.28;5042266;28;20052;-71
2024/01/13 09:15:55;;;;;;;16.98;9.25;;;;;;;-12.06;83.19;101226.81;5035987;28;20081;-69
2024/01/13 09:18:27;;;;;;;22.83;10.90;;;;;;;-11.70;83.50;101274.47;5068401;28;20041;-71
2024/01/13 09:21:00;;;;;;;15.38;10.45;;;;;;;-11.87;83.28;101235.22;5041195;28;20048;-73
2024/01/13 09:23:27;;;;;;;25.70;11.02;;;;;;;-11.54;82.69;101294.94;5042016;28;20128;-70
2024/01/13 09:26:02;;;;;;;20.52;10.27;;;;;;;-11.51;82.55;101292.34;5028214;28;20037;-69
2024/01/13 09:28:27;;;;;;;17.13;11.10;;;;;;;-11.46;80.67;101300.88;5042610;28;20048;-74
2024/01/13 09:30:53;;;;;;;19.20;11.37;;;;;;;-11.43;80.19;101293.16;5040181;28;20623;-73
2024/01/13 09:33:19;;;;;;;18.88;10.57;;;;;;;-11.39;80.52;101289.69;5031018;28;20408;-67
2024/01/13 09:35:45;;;;;;;18.00;10.20;;;;;;;-11.75;80.20;101234.28;5035238;28;20041;-68
2024/01/13 09:38:11;;;;;;;19.88;10.95;;;;;;;-11.68;80.25;101271.91;5043005;28;20037;-69
2024/01/13 09:40:41;;;;;;;25.63;15.13;;;;;;;-11.70;82.69;101264.22;5042938;28;20037;-68
2024/01/13 09:43:32;;;;;;;26.80;11.80;;;;;;;-11.61;83.46;101274.41;5043808;28;20037;-72
2024/01/13 09:45:58;;;;;;;36.03;14.07;;;;;;;-11.74;84.37;101218.00;5055943;28;20048;-73
2024/01/13 09:48:23;;;;;;;36.57;17.20;;;;;;;-11.34;83.30;101257.06;5041558;28;20125;-68
2024/01/13 09:50:55;;;;;;;36.47;18.97;;;;;;;-11.42;83.33;101231.44;5041827;28;20044;-72
2024/01/13 09:53:29;;;;;;;38.83;15.80;;;;;;;-11.19;82.08;101248.38;5043562;28;20073;-71
2024/01/13 09:56:03;;;;;;;48.72;20.55;;;;;;;-11.30;81.50;101235.59;5031265;28;20033;-69
2024/01/13 09:58:29;;;;;;;36.20;14.68;;;;;;;-11.28;81.13;101246.72;5035899;28;20076;-67
2024/01/13 10:00:56;;;;;;;37.47;17.65;;;;;;;-11.21;81.12;101248.41;5047142;28;20037;-70
2024/01/13 10:03:22;;;;;;;33.78;13.23;;;;;;;-11.28;79.07;101255.28;5037095;28;20045;-69
2024/01/13 10:05:50;;;;;;;34.53;13.47;;;;;;;-11.44;79.36;101256.31;5041889;28;20386;-69
2024/01/13 10:08:21;;;;;;;24.80;14.45;;;;;;;-11.64;79.41;101238.47;5037890;28;20388;-69
2024/01/13 10:10:47;;;;;;;21.80;12.35;;;;;;;-11.81;79.66;101208.69;5039352;28;20084;-69
2024/01/13 10:13:12;;;;;;;21.07;11.30;;;;;;;-11.53;79.84;101250.41;5041008;28;20538;-71
2024/01/13 10:15:38;;;;;;;18.37;11.07;;;;;;;-11.47;80.38;101258.06;5044873;28;20087;-69
2024/01/13 10:18:07;;;;;;;18.77;10.60;;;;;;;-11.81;79.79;101157.31;5035151;28;20409;-68
2024/01/13 10:20:33;;;;;;;23.60;11.10;;;;;;;-11.52;79.20;101216.13;5047340;28;20079;-69
2024/01/13 10:23:00;;;;;;;26.70;13.40;;;;;;;-11.41;79.88;101211.72;5042158;28;20041;-71
2024/01/13 10:25:25;;;;;;;21.98;12.57;;;;;;;-11.40;79.43;101198.00;5044286;28;20043;-71
2024/01/13 10:27:51;;;;;;;30.60;13.77;;;;;;;-11.40;78.90;101206.56;5042940;28;20115;-68
2024/01/13 10:30:16;;;;;;;34.23;17.57;;;;;;;-11.47;79.12;101210.06;5051949;28;20488;-69
2024/01/13 10:32:42;;;;;;;26.70;14.53;;;;;;;-11.62;78.86;101211.03;5048806;28;20033;-68
2024/01/13 10:35:08;;;;;;;32.35;14.35;;;;;;;-11.57;80.53;101214.41;5039522;28;20054;-71
2024/01/13 10:37:37;;;;;;;20.73;13.38;;;;;;;-11.82;79.81;101150.47;5039291;28;20052;-72
2024/01/13 10:40:03;;;;;;;25.63;12.27;;;;;;;-11.74;77.68;101175.19;5043952;28;20047;-70
2024/01/13 10:42:38;;;;;;;21.48;12.90;;;;;;;-11.69;79.16;101199.09;5041190;28;20758;-68
2024/01/13 10:45:09;;;;;;;27.83;15.93;;;;;;;-11.76;80.72;101178.63;5043872;28;20044;-69
2024/01/13 10:47:42;;;;;;;24.35;12.00;;;;;;;-12.01;79.46;101121.50;5045172;28;20039;-70
2024/01/13 10:50:10;;;;;;;19.30;11.00;;;;;;;-12.03;80.14;101116.38;5037972;28;20037;-68
2024/01/13 10:53:04;;;;;;;20.73;10.88;;;;;;;-11.47;80.00;101206.66;5041048;28;20068;-70
2024/01/13 10:55:30;;;;;;;21.70;13.73;;;;;;;-11.68;79.07;101162.28;5027190;28;20128;-68